Mifflinburg, Pennsylvania
Current Conditions -  °F | °C
As of 8:53 PM on Sunday 23 Nov 2014 (Local Time) from KSEG Reporting Station
Overcast Overcast  
Wind Chill: 47°   Ceiling: 3900
Heat Index: 47°   Visibility: 10mi
Dew Point: 32°   Wind: 0mph
Humidity: 56%   Direction: NA
Pressure: 29.96"   Gusts: NA
Location:  40.92°N, 77.05°W
Report Text: KSEG 240153Z AUTO 00000KT 10SM BKN039 OVC046 08/00 A2996 RMK AO2 SLP148 T00830000 $
Loading
Personal Weather Stations






























Interactive Weather Map New forecast layout! Learn more

10-Day Weather Forecast

Advertisements
Track Severe Weather on mobile